aviador You're here:

KFDW Decoded Metar

FAIRFIELD COUNTY AIRPORT in SC, USA
Report Time2018-01-18 13:55:00
UTC Time2018-01-18 13:56:09
Flight Rules vfr VFR
Wind280° at 05 kt
W.Decomp.*RWY 22: 2.0 kt HW 4.6 kt RCW
W.Rank280° ranks 31
Current wind is below 280° avg. (5.5)
Visibility9999 m
Phenomena:N/A
Clouds:N/A
Expected CloudBase > 1,200 ft AGL from Temp-Dew spread
CeilingNone
Temp-6°C (ISA -20)
Dew Point-9°C (80% RH)
AAT-10.8°C
QNH1029 hPa
Density Alt-2,382 ft
Elevation577 ft
Report Wrong Elevation
Raw Report
KFDW 181355Z AUTO 28005KT 10SM CLR M06/M09 A3038 RMK AO1=

Extra information for KFDW:More info

Metar Taf Metar & Taf Last 4 Metars F.Rules Stats Wind Profile Meteogram Temp Stats Airport Information Weather charts Add Link Nearby VenuesMetar ALERT Operation Metar Decoded Social comments

AIRNAV info for KFDW